Time;durP1;ratioP1;P1;durP2;ratioP2;P2;SDS_P1;SDS_P2;PMS_P1;PMS_P2;Temp;Humidity;BMP_temperature;BMP_pressure;BME280_temperature;BME280_humidity;BME280_pressure;Samples;Min_cycle;Max_cycle;Signal;HPM_P1;HPM_P2
2022/06/13 00:02:11;;;;;;;16.92;5.63;;;;;;;;;;5116876;28;20198;-39
2022/06/13 00:04:38;;;;;;;8.90;5.40;;;;;;;;;;5117071;28;20237;-38
2022/06/13 00:07:05;;;;;;;8.13;5.65;;;;;;;;;;5116646;28;20234;-39
2022/06/13 00:09:32;;;;;;;8.10;5.45;;;;;;;;;;5117112;28;20213;-38
2022/06/13 00:11:59;;;;;;;8.68;5.47;;;;;;;;;;5116332;28;20210;-41
2022/06/13 00:14:26;;;;;;;6.80;5.22;;;;;;;;;;5117135;28;20226;-38
2022/06/13 00:16:53;;;;;;;9.20;5.30;;;;;;;;;;5117081;28;20210;-38
2022/06/13 00:19:20;;;;;;;8.45;5.43;;;;;;;;;;5116494;28;20206;-38
2022/06/13 00:21:47;;;;;;;7.40;5.78;;;;;;;;;;5116453;28;20194;-38
2022/06/13 00:24:14;;;;;;;13.15;5.70;;;;;;;;;;5116407;28;20209;-38
2022/06/13 00:26:41;;;;;;;8.45;5.60;;;;;;;;;;5116096;28;20198;-38
2022/06/13 00:29:08;;;;;;;11.23;5.65;;;;;;;;;;5116114;28;20547;-39
2022/06/13 00:31:35;;;;;;;10.13;5.10;;;;;;;;;;5116091;28;20615;-39
2022/06/13 00:34:03;;;;;;;9.77;5.25;;;;;;;;;;5115930;28;20589;-39
2022/06/13 00:36:29;;;;;;;11.45;5.03;;;;;;;;;;5116227;28;20198;-39
2022/06/13 00:38:56;;;;;;;11.13;5.50;;;;;;;;;;5116056;28;20243;-39
2022/06/13 00:41:26;;;;;;;14.88;5.10;;;;;;;;;;5116119;28;20213;-38
2022/06/13 00:43:54;;;;;;;15.85;5.63;;;;;;;;;;5116400;28;20270;-39
2022/06/13 00:46:39;;;;;;;12.88;5.60;;;;;;;;;;5116106;28;20193;-39
2022/06/13 00:49:13;;;;;;;11.88;5.97;;;;;;;;;;5115765;28;20217;-39
2022/06/13 00:51:44;;;;;;;11.43;5.18;;;;;;;;;;5098341;28;20247;-39
2022/06/13 00:54:14;;;;;;;9.93;4.57;;;;;;;;;;5116415;28;20233;-39
2022/06/13 00:56:41;;;;;;;11.32;4.80;;;;;;;;;;5098246;28;20194;-38
2022/06/13 00:59:13;;;;;;;10.77;4.80;;;;;;;;;;5098151;28;20262;-38
2022/06/13 01:01:41;;;;;;;8.57;5.18;;;;;;;;;;5115302;28;20206;-39
2022/06/13 01:04:08;;;;;;;8.30;4.70;;;;;;;;;;5115495;28;20209;-38
2022/06/13 01:06:40;;;;;;;9.45;4.68;;;;;;;;;;5115821;28;20557;-39
2022/06/13 01:09:09;;;;;;;8.80;4.85;;;;;;;;;;5098131;28;20188;-39
2022/06/13 01:11:39;;;;;;;18.65;5.32;;;;;;;;;;5115617;28;20209;-39
2022/06/13 01:14:28;;;;;;;19.85;5.25;;;;;;;;;;5115632;28;20198;-38
2022/06/13 01:17:11;;;;;;;16.23;5.20;;;;;;;;;;5098202;28;20190;-38
2022/06/13 01:19:58;;;;;;;9.05;4.68;;;;;;;;;;5115730;28;20197;-38
2022/06/13 01:22:44;;;;;;;16.35;5.07;;;;;;;;;;5097827;28;20202;-38
2022/06/13 01:25:32;;;;;;;10.75;5.13;;;;;;;;;;5115925;28;20228;-38
2022/06/13 01:28:28;;;;;;;13.05;5.25;;;;;;;;;;5115153;28;20541;-39
2022/06/13 01:30:58;;;;;;;14.75;5.30;;;;;;;;;;5115194;28;20224;-38
2022/06/13 01:34:03;;;;;;;12.93;5.15;;;;;;;;;;5115423;28;20198;-39
2022/06/13 01:36:49;;;;;;;13.38;6.00;;;;;;;;;;5032662;28;20299;-39
2022/06/13 01:39:22;;;;;;;17.80;5.60;;;;;;;;;;5032745;28;20201;-39
2022/06/13 01:42:16;;;;;;;13.07;5.80;;;;;;;;;;5032741;28;20246;-38
2022/06/13 01:45:13;;;;;;;13.50;5.75;;;;;;;;;;5032914;28;20208;-39
2022/06/13 01:47:59;;;;;;;10.13;5.57;;;;;;;;;;5027143;28;20639;-38
2022/06/13 01:50:33;;;;;;;7.60;5.60;;;;;;;;;;5052788;28;20214;-38
2022/06/13 01:53:19;;;;;;;13.65;5.30;;;;;;;;;;5036230;28;20203;-39
2022/06/13 01:55:59;;;;;;;12.63;5.38;;;;;;;;;;5052687;28;20220;-38
2022/06/13 01:58:40;;;;;;;12.32;5.32;;;;;;;;;;5036061;28;20212;-38
2022/06/13 02:01:14;;;;;;;12.23;5.32;;;;;;;;;;5035921;28;20226;-39
2022/06/13 02:03:49;;;;;;;12.52;5.20;;;;;;;;;;5052476;28;20238;-39
2022/06/13 02:06:28;;;;;;;10.70;5.43;;;;;;;;;;5035993;28;20716;-39
2022/06/13 02:09:04;;;;;;;9.32;5.22;;;;;;;;;;5035998;28;20207;-38
2022/06/13 02:11:43;;;;;;;10.55;4.78;;;;;;;;;;5107989;28;20210;-38
2022/06/13 02:14:23;;;;;;;10.07;4.45;;;;;;;;;;5118501;28;20666;-38
2022/06/13 02:17:05;;;;;;;9.20;4.65;;;;;;;;;;5117540;28;20206;-39
2022/06/13 02:19:45;;;;;;;9.52;4.65;;;;;;;;;;5118727;28;20224;-39
2022/06/13 02:22:23;;;;;;;8.80;4.70;;;;;;;;;;5118376;28;20262;-39
2022/06/13 02:24:56;;;;;;;8.68;4.72;;;;;;;;;;5118253;27;20201;-39
2022/06/13 02:27:28;;;;;;;10.27;5.18;;;;;;;;;;5118319;28;20202;-39
2022/06/13 02:29:56;;;;;;;8.95;4.75;;;;;;;;;;5117590;28;20198;-41
2022/06/13 02:32:39;;;;;;;8.43;4.70;;;;;;;;;;5117626;28;20217;-39
2022/06/13 02:35:14;;;;;;;6.85;5.10;;;;;;;;;;5118287;28;20228;-38
2022/06/13 02:37:49;;;;;;;7.47;4.75;;;;;;;;;;5117912;28;20198;-39
2022/06/13 02:40:32;;;;;;;6.50;5.10;;;;;;;;;;5117707;28;20182;-42
2022/06/13 02:43:11;;;;;;;9.10;5.25;;;;;;;;;;5117576;28;20202;-41
2022/06/13 02:45:51;;;;;;;9.73;5.00;;;;;;;;;;5118214;28;20275;-40
2022/06/13 02:48:25;;;;;;;11.23;5.28;;;;;;;;;;5118534;28;20296;-39
2022/06/13 02:51:20;;;;;;;8.70;5.60;;;;;;;;;;5118105;28;20699;-38
2022/06/13 02:54:05;;;;;;;9.98;5.10;;;;;;;;;;5118379;28;20202;-39
2022/06/13 02:57:31;;;;;;;12.73;5.07;;;;;;;;;;5118187;28;20635;-39
2022/06/13 03:00:20;;;;;;;11.48;5.38;;;;;;;;;;5036162;28;20227;-38
2022/06/13 03:02:54;;;;;;;10.82;5.47;;;;;;;;;;5035541;28;20261;-39
2022/06/13 03:05:42;;;;;;;9.15;5.65;;;;;;;;;;5035332;28;20224;-38
2022/06/13 03:08:32;;;;;;;7.20;5.20;;;;;;;;;;5035613;28;20282;-38
2022/06/13 03:11:20;;;;;;;9.85;5.05;;;;;;;;;;5019332;28;20211;-40
2022/06/13 03:13:52;;;;;;;10.95;5.70;;;;;;;;;;5035948;28;20221;-39
2022/06/13 03:16:26;;;;;;;9.60;5.90;;;;;;;;;;5035799;28;20290;-39
2022/06/13 03:19:03;;;;;;;8.05;5.82;;;;;;;;;;5035448;28;20722;-39
2022/06/13 03:21:39;;;;;;;13.55;6.80;;;;;;;;;;5035361;28;20204;-38
2022/06/13 03:24:18;;;;;;;13.95;6.57;;;;;;;;;;5032859;28;20200;-39
2022/06/13 03:26:52;;;;;;;10.13;7.32;;;;;;;;;;5032774;28;20224;-39
2022/06/13 03:29:26;;;;;;;11.20;7.18;;;;;;;;;;5032350;28;20688;-39
2022/06/13 03:31:57;;;;;;;7.85;7.03;;;;;;;;;;5034269;28;20224;-38
2022/06/13 03:34:28;;;;;;;10.95;7.50;;;;;;;;;;5090134;28;20225;-40
2022/06/13 03:36:59;;;;;;;8.98;7.45;;;;;;;;;;5095449;28;20233;-40
2022/06/13 03:39:42;;;;;;;10.48;7.93;;;;;;;;;;5112380;27;20222;-38
2022/06/13 03:42:15;;;;;;;10.63;8.07;;;;;;;;;;5116423;28;20232;-39
2022/06/13 03:44:55;;;;;;;13.02;8.00;;;;;;;;;;5115534;28;20233;-38
2022/06/13 03:47:32;;;;;;;11.68;7.05;;;;;;;;;;5115047;28;20321;-41
2022/06/13 03:50:16;;;;;;;17.85;8.73;;;;;;;;;;5113780;28;20222;-43
2022/06/13 03:52:46;;;;;;;10.68;7.53;;;;;;;;;;5116610;28;20232;-39
2022/06/13 03:55:24;;;;;;;12.73;7.65;;;;;;;;;;5114507;28;20226;-38
2022/06/13 03:58:04;;;;;;;17.38;7.10;;;;;;;;;;5115212;28;20290;-38
2022/06/13 04:00:38;;;;;;;10.90;6.85;;;;;;;;;;5115052;28;20246;-39
2022/06/13 04:03:05;;;;;;;11.70;7.00;;;;;;;;;;5114895;28;20218;-39
2022/06/13 04:05:54;;;;;;;9.60;6.80;;;;;;;;;;5118738;27;20625;-39
2022/06/13 04:08:22;;;;;;;12.82;6.45;;;;;;;;;;5135320;27;20222;-39
2022/06/13 04:11:11;;;;;;;6.10;5.43;;;;;;;;;;5124993;27;20217;-38
2022/06/13 04:14:08;;;;;;;7.20;6.05;;;;;;;;;;5118412;27;20217;-40
2022/06/13 04:16:47;;;;;;;9.75;6.43;;;;;;;;;;5136164;27;20268;-38
2022/06/13 04:19:32;;;;;;;8.05;5.93;;;;;;;;;;5138572;27;20567;-39
2022/06/13 04:22:19;;;;;;;6.65;5.10;;;;;;;;;;5136017;27;20603;-39
2022/06/13 04:24:57;;;;;;;6.07;4.35;;;;;;;;;;5117947;27;20285;-38
2022/06/13 04:27:29;;;;;;;10.63;4.18;;;;;;;;;;5118015;27;20224;-39
2022/06/13 04:30:15;;;;;;;9.68;3.85;;;;;;;;;;5118144;27;20254;-42
2022/06/13 04:33:12;;;;;;;9.48;3.92;;;;;;;;;;5113903;27;20722;-41
2022/06/13 04:35:40;;;;;;;10.60;3.90;;;;;;;;;;5088393;27;20230;-39
2022/06/13 04:38:10;;;;;;;6.95;3.70;;;;;;;;;;5135591;27;20602;-39
2022/06/13 04:40:40;;;;;;;6.72;3.58;;;;;;;;;;5117505;27;20232;-39
2022/06/13 04:43:09;;;;;;;9.27;3.65;;;;;;;;;;5117368;27;20232;-39
2022/06/13 04:45:39;;;;;;;14.30;4.20;;;;;;;;;;5117705;27;20229;-39
2022/06/13 04:48:08;;;;;;;6.63;3.67;;;;;;;;;;5123323;27;20716;-39
2022/06/13 04:50:38;;;;;;;8.52;4.00;;;;;;;;;;5134109;27;20274;-40
2022/06/13 04:53:06;;;;;;;5.88;3.80;;;;;;;;;;5116326;27;20734;-42
2022/06/13 04:55:41;;;;;;;8.88;4.15;;;;;;;;;;5134743;27;20305;-40
2022/06/13 04:58:26;;;;;;;8.20;4.15;;;;;;;;;;5135309;27;20221;-39
2022/06/13 05:01:06;;;;;;;11.98;5.30;;;;;;;;;;5135512;27;20681;-39
2022/06/13 05:03:37;;;;;;;7.00;4.35;;;;;;;;;;5116782;27;20263;-39
2022/06/13 05:06:30;;;;;;;6.13;4.20;;;;;;;;;;5134558;27;20240;-39
2022/06/13 05:09:02;;;;;;;7.55;4.53;;;;;;;;;;5134897;27;20181;-39
2022/06/13 05:12:04;;;;;;;9.18;4.90;;;;;;;;;;5134456;27;20254;-39
2022/06/13 05:14:40;;;;;;;8.27;4.72;;;;;;;;;;5088522;27;20546;-39
2022/06/13 05:17:35;;;;;;;11.98;4.63;;;;;;;;;;5135971;27;20225;-39
2022/06/13 05:20:22;;;;;;;7.53;4.40;;;;;;;;;;5136002;27;20201;-39
2022/06/13 05:23:17;;;;;;;7.22;4.68;;;;;;;;;;5136780;27;20197;-39
2022/06/13 05:25:46;;;;;;;8.57;4.47;;;;;;;;;;5118597;28;20197;-39
2022/06/13 05:28:16;;;;;;;8.40;4.43;;;;;;;;;;5118008;28;20253;-39
2022/06/13 05:30:45;;;;;;;7.85;4.72;;;;;;;;;;5135762;28;20288;-40
2022/06/13 05:33:14;;;;;;;7.28;4.40;;;;;;;;;;5135930;28;20265;-39
2022/06/13 05:35:45;;;;;;;9.48;4.60;;;;;;;;;;5135801;28;20224;-39
2022/06/13 05:38:21;;;;;;;8.23;4.30;;;;;;;;;;5135798;28;20224;-39
2022/06/13 05:40:48;;;;;;;8.70;4.10;;;;;;;;;;5118227;28;20213;-39
2022/06/13 05:43:16;;;;;;;7.05;4.07;;;;;;;;;;5135696;28;20235;-39
2022/06/13 05:45:43;;;;;;;10.02;3.95;;;;;;;;;;5135870;28;20189;-39
2022/06/13 05:48:13;;;;;;;6.03;3.70;;;;;;;;;;5138735;27;20201;-39
2022/06/13 05:50:41;;;;;;;10.32;4.00;;;;;;;;;;5140111;27;20185;-39
2022/06/13 05:53:17;;;;;;;8.48;4.15;;;;;;;;;;5140873;27;20209;-39
2022/06/13 05:55:44;;;;;;;9.38;3.72;;;;;;;;;;5139529;27;20220;-39
2022/06/13 05:58:13;;;;;;;7.03;4.10;;;;;;;;;;5140025;27;20280;-39
2022/06/13 06:00:46;;;;;;;8.50;4.57;;;;;;;;;;5139567;27;20201;-39
2022/06/13 06:03:13;;;;;;;8.55;4.35;;;;;;;;;;5139518;27;20566;-39
2022/06/13 06:05:41;;;;;;;7.03;4.20;;;;;;;;;;5139574;27;20263;-39
2022/06/13 06:08:17;;;;;;;7.57;4.15;;;;;;;;;;5139668;27;20587;-39
2022/06/13 06:10:46;;;;;;;6.75;3.90;;;;;;;;;;5122228;27;20182;-39
2022/06/13 06:13:14;;;;;;;7.28;4.05;;;;;;;;;;5121921;27;20270;-39
2022/06/13 06:15:42;;;;;;;8.20;4.57;;;;;;;;;;5139681;27;20221;-39
2022/06/13 06:18:09;;;;;;;11.45;4.60;;;;;;;;;;5139474;27;20204;-39
2022/06/13 06:20:36;;;;;;;7.63;4.30;;;;;;;;;;5139128;27;20201;-39
2022/06/13 06:23:04;;;;;;;7.68;4.18;;;;;;;;;;5139320;27;20518;-39
2022/06/13 06:25:32;;;;;;;10.07;4.70;;;;;;;;;;5139708;27;20202;-39
2022/06/13 06:28:00;;;;;;;10.48;4.40;;;;;;;;;;5139667;27;20208;-39
2022/06/13 06:30:27;;;;;;;6.97;4.30;;;;;;;;;;5139304;27;20198;-39
2022/06/13 06:32:55;;;;;;;7.28;3.85;;;;;;;;;;5139196;27;20205;-39
2022/06/13 06:35:24;;;;;;;11.65;3.67;;;;;;;;;;5139028;27;20205;-38
2022/06/13 06:37:52;;;;;;;10.10;3.97;;;;;;;;;;5121731;27;20201;-38
2022/06/13 06:40:21;;;;;;;7.70;3.78;;;;;;;;;;5139285;27;20200;-39
2022/06/13 06:42:48;;;;;;;9.70;3.55;;;;;;;;;;5139208;27;20212;-39
2022/06/13 06:45:24;;;;;;;10.73;4.03;;;;;;;;;;5138975;27;20203;-39
2022/06/13 06:47:51;;;;;;;7.85;3.80;;;;;;;;;;5138833;27;20197;-39
2022/06/13 06:50:24;;;;;;;7.45;3.40;;;;;;;;;;5138803;27;20638;-39
2022/06/13 06:52:51;;;;;;;5.82;3.63;;;;;;;;;;5138650;27;20197;-39
2022/06/13 07:00:59;;;;;;;7.65;3.70;;;;;;;;;;5138646;27;20197;-39
2022/06/13 07:03:26;;;;;;;9.82;3.80;;;;;;;;;;5138763;27;20212;-39
2022/06/13 07:05:53;;;;;;;10.75;4.07;;;;;;;;;;5138630;27;20610;-39
2022/06/13 07:08:20;;;;;;;9.10;4.03;;;;;;;;;;5138464;27;20575;-39
2022/06/13 07:10:48;;;;;;;7.38;4.10;;;;;;;;;;5138942;27;20205;-39
2022/06/13 07:13:17;;;;;;;7.65;4.38;;;;;;;;;;5138158;27;20201;-39
2022/06/13 07:15:48;;;;;;;12.85;4.95;;;;;;;;;;5138501;27;20232;-39
2022/06/13 07:18:16;;;;;;;9.48;4.80;;;;;;;;;;5138617;27;20208;-39
2022/06/13 07:20:44;;;;;;;8.35;4.53;;;;;;;;;;5138616;27;20200;-39
2022/06/13 07:23:12;;;;;;;11.27;4.18;;;;;;;;;;5138101;27;20536;-41
2022/06/13 07:25:39;;;;;;;7.80;3.90;;;;;;;;;;5138130;27;20206;-39
2022/06/13 07:28:06;;;;;;;4.78;3.75;;;;;;;;;;5138671;27;20207;-39
2022/06/13 07:30:33;;;;;;;9.05;4.20;;;;;;;;;;5138111;27;20262;-39
2022/06/13 07:33:00;;;;;;;15.32;4.20;;;;;;;;;;5137868;27;20224;-39
2022/06/13 07:35:27;;;;;;;5.78;3.60;;;;;;;;;;5137901;27;20208;-39
2022/06/13 07:40:40;;;;;;;7.63;3.47;;;;;;;;;;5137965;27;20223;-39
2022/06/13 07:43:16;;;;;;;10.40;3.60;;;;;;;;;;5137711;27;20198;-39
2022/06/13 07:45:43;;;;;;;7.40;3.40;;;;;;;;;;5119779;27;20230;-39
2022/06/13 07:48:19;;;;;;;5.15;2.83;;;;;;;;;;5137734;27;20220;-39
2022/06/13 07:50:46;;;;;;;14.10;3.97;;;;;;;;;;5137625;27;20638;-39
2022/06/13 07:53:13;;;;;;;9.40;3.45;;;;;;;;;;5137687;27;20266;-39
2022/06/13 07:55:41;;;;;;;7.05;3.67;;;;;;;;;;5137414;27;20622;-39
2022/06/13 07:58:20;;;;;;;10.07;3.67;;;;;;;;;;5137503;27;20567;-41
2022/06/13 08:00:49;;;;;;;4.70;3.40;;;;;;;;;;5119733;27;20216;-39
2022/06/13 08:03:19;;;;;;;4.80;3.63;;;;;;;;;;5138017;27;20204;-39
2022/06/13 08:05:46;;;;;;;6.07;3.88;;;;;;;;;;5119670;27;20293;-39
2022/06/13 08:08:14;;;;;;;5.55;3.95;;;;;;;;;;5119316;27;20618;-39
2022/06/13 08:10:41;;;;;;;10.25;4.00;;;;;;;;;;5137140;27;20207;-39
2022/06/13 08:13:11;;;;;;;5.90;3.80;;;;;;;;;;5138531;27;20197;-39
2022/06/13 08:15:39;;;;;;;6.00;3.00;;;;;;;;;;5119585;27;20189;-39
2022/06/13 08:18:07;;;;;;;4.60;3.13;;;;;;;;;;5137242;27;20225;-39
2022/06/13 08:20:34;;;;;;;7.82;3.30;;;;;;;;;;5137148;27;20201;-39
2022/06/13 08:23:03;;;;;;;6.50;3.70;;;;;;;;;;5137109;27;20250;-39
2022/06/13 08:25:32;;;;;;;5.63;3.53;;;;;;;;;;5136728;27;20262;-40
2022/06/13 08:27:59;;;;;;;7.68;3.70;;;;;;;;;;5136927;27;20213;-39
2022/06/13 08:30:36;;;;;;;6.72;3.85;;;;;;;;;;5136963;27;20201;-39
2022/06/13 08:33:03;;;;;;;8.02;3.60;;;;;;;;;;5119377;27;20205;-42
2022/06/13 08:35:30;;;;;;;7.10;4.03;;;;;;;;;;5136636;27;20246;-39
2022/06/13 08:38:03;;;;;;;10.48;4.20;;;;;;;;;;5086489;27;20240;-40
2022/06/13 08:40:46;;;;;;;7.22;4.03;;;;;;;;;;5136789;27;20197;-39
2022/06/13 08:43:40;;;;;;;8.07;4.35;;;;;;;;;;5119562;27;20529;-39
2022/06/13 08:46:22;;;;;;;26.40;5.03;;;;;;;;;;5098898;27;20318;-38
2022/06/13 08:48:59;;;;;;;7.40;5.18;;;;;;;;;;5119519;27;20201;-38
2022/06/13 08:51:36;;;;;;;8.20;5.38;;;;;;;;;;5118594;27;20197;-38
2022/06/13 08:54:08;;;;;;;7.15;5.32;;;;;;;;;;5136819;27;20200;-38
2022/06/13 08:56:36;;;;;;;9.38;5.22;;;;;;;;;;5118760;27;20536;-38
2022/06/13 08:59:23;;;;;;;11.55;5.25;;;;;;;;;;5136222;27;20201;-38
2022/06/13 09:01:58;;;;;;;7.20;6.28;;;;;;;;;;5120989;27;20208;-38
2022/06/13 09:04:36;;;;;;;10.95;5.90;;;;;;;;;;5136636;27;20193;-39
2022/06/13 09:07:11;;;;;;;7.68;6.38;;;;;;;;;;5118266;27;20229;-38
2022/06/13 09:09:42;;;;;;;14.73;7.28;;;;;;;;;;5118844;27;20212;-39
2022/06/13 09:12:18;;;;;;;10.15;7.60;;;;;;;;;;5120270;27;20246;-39
2022/06/13 09:14:59;;;;;;;8.55;7.57;;;;;;;;;;5136005;27;20255;-39
2022/06/13 09:17:50;;;;;;;12.82;7.05;;;;;;;;;;5136321;27;20221;-39
2022/06/13 09:20:20;;;;;;;10.35;7.38;;;;;;;;;;5118611;27;20242;-38
2022/06/13 09:23:00;;;;;;;12.05;7.28;;;;;;;;;;5117586;27;20205;-39
2022/06/13 09:25:45;;;;;;;12.77;8.88;;;;;;;;;;5118197;27;20268;-38
2022/06/13 09:28:15;;;;;;;14.32;9.27;;;;;;;;;;5135727;27;20496;-39
2022/06/13 09:30:47;;;;;;;13.05;10.27;;;;;;;;;;5118278;28;20197;-40
2022/06/13 09:33:21;;;;;;;13.13;10.23;;;;;;;;;;5118995;28;20205;-38
2022/06/13 09:35:57;;;;;;;15.30;9.98;;;;;;;;;;5136340;28;20180;-39
2022/06/13 09:38:28;;;;;;;12.63;10.00;;;;;;;;;;5136023;28;20221;-39
2022/06/13 09:41:00;;;;;;;12.57;9.40;;;;;;;;;;5135547;28;20212;-39
2022/06/13 09:43:37;;;;;;;11.52;9.85;;;;;;;;;;5135905;28;20182;-38
2022/06/13 09:46:14;;;;;;;11.38;8.20;;;;;;;;;;5136042;28;20205;-39
2022/06/13 09:49:20;;;;;;;11.75;8.82;;;;;;;;;;5135749;28;20207;-38
2022/06/13 09:51:49;;;;;;;9.50;7.70;;;;;;;;;;5135807;28;20204;-38
2022/06/13 09:54:34;;;;;;;8.82;7.72;;;;;;;;;;5135834;28;20261;-39
2022/06/13 09:57:34;;;;;;;11.93;8.18;;;;;;;;;;5135872;28;20217;-39
2022/06/13 10:00:16;;;;;;;11.07;8.45;;;;;;;;;;5136475;28;20182;-38
2022/06/13 10:03:08;;;;;;;12.48;8.73;;;;;;;;;;5118313;28;20197;-39
2022/06/13 10:05:48;;;;;;;13.88;9.65;;;;;;;;;;5135230;28;20233;-38
2022/06/13 10:08:33;;;;;;;10.50;8.85;;;;;;;;;;5118601;28;20223;-38
2022/06/13 10:11:30;;;;;;;10.88;8.05;;;;;;;;;;5119803;28;20515;-39
2022/06/13 10:14:16;;;;;;;12.20;8.60;;;;;;;;;;5135615;28;20194;-39
2022/06/13 10:16:55;;;;;;;9.40;7.47;;;;;;;;;;5135724;28;20225;-38
2022/06/13 10:19:34;;;;;;;11.25;6.38;;;;;;;;;;5117590;28;20637;-38
2022/06/13 10:22:14;;;;;;;4.88;3.75;;;;;;;;;;5135735;28;20233;-39
2022/06/13 10:25:08;;;;;;;4.25;2.60;;;;;;;;;;5136034;28;20269;-39
2022/06/13 10:27:55;;;;;;;6.57;3.80;;;;;;;;;;5136009;28;20263;-38
2022/06/13 10:30:41;;;;;;;7.65;4.10;;;;;;;;;;5117454;28;20197;-39
2022/06/13 10:33:20;;;;;;;4.28;2.92;;;;;;;;;;5137020;27;20200;-39
2022/06/13 10:36:01;;;;;;;2.72;1.77;;;;;;;;;;5121673;27;20198;-39
2022/06/13 10:38:44;;;;;;;5.47;2.83;;;;;;;;;;5121855;27;20236;-38
2022/06/13 10:41:11;;;;;;;4.68;2.85;;;;;;;;;;5139061;27;20186;-38
2022/06/13 10:43:42;;;;;;;4.65;2.78;;;;;;;;;;5121373;27;20232;-40
2022/06/13 10:46:11;;;;;;;4.53;2.65;;;;;;;;;;5121785;27;20201;-40
2022/06/13 10:48:46;;;;;;;6.82;3.75;;;;;;;;;;5139023;27;20251;-39
2022/06/13 10:51:13;;;;;;;5.60;3.38;;;;;;;;;;5121188;27;20209;-39
2022/06/13 10:53:56;;;;;;;5.03;2.85;;;;;;;;;;5121013;27;20201;-39
2022/06/13 10:56:29;;;;;;;4.43;2.50;;;;;;;;;;5120997;27;20205;-39
2022/06/13 10:58:58;;;;;;;3.55;2.47;;;;;;;;;;5139171;27;20246;-38
2022/06/13 11:01:28;;;;;;;3.42;2.53;;;;;;;;;;5138757;27;20246;-39
2022/06/13 11:04:06;;;;;;;4.70;2.55;;;;;;;;;;5121078;27;20212;-39
2022/06/13 11:06:45;;;;;;;4.28;2.70;;;;;;;;;;5138792;27;20270;-38
2022/06/13 11:09:30;;;;;;;3.38;2.33;;;;;;;;;;5138871;27;20197;-36
2022/06/13 11:12:00;;;;;;;4.22;2.30;;;;;;;;;;5138620;27;20209;-36
2022/06/13 11:22:37;;;;;;;3.15;2.50;;;;;;;;;;5138219;27;20221;-36
2022/06/13 11:23:01;;;;;;;5.13;3.75;;;;;;;;;;5138709;27;20181;-39
2022/06/13 11:25:29;;;;;;;5.90;3.42;;;;;;;;;;5120122;27;20201;-39
2022/06/13 11:28:08;;;;;;;4.65;3.10;;;;;;;;;;5138069;27;20212;-39
2022/06/13 11:30:38;;;;;;;7.20;3.38;;;;;;;;;;5120607;27;20227;-39
2022/06/13 11:33:07;;;;;;;4.53;3.15;;;;;;;;;;5138044;27;20582;-38
2022/06/13 11:35:39;;;;;;;7.07;3.13;;;;;;;;;;5137780;27;20625;-38
2022/06/13 11:38:21;;;;;;;4.30;2.65;;;;;;;;;;5137917;27;20225;-37
2022/06/13 11:41:03;;;;;;;4.38;2.60;;;;;;;;;;5138230;27;20240;-39
2022/06/13 11:43:34;;;;;;;3.13;2.20;;;;;;;;;;5119877;27;20219;-39
2022/06/13 11:46:07;;;;;;;3.25;2.55;;;;;;;;;;5119344;27;20525;-39
2022/06/13 11:48:36;;;;;;;3.53;2.45;;;;;;;;;;5103478;27;20201;-39
2022/06/13 11:51:05;;;;;;;3.08;2.00;;;;;;;;;;5137695;27;20518;-39
2022/06/13 11:53:38;;;;;;;2.33;2.08;;;;;;;;;;5137656;27;20197;-39
2022/06/13 11:56:09;;;;;;;4.70;2.00;;;;;;;;;;5120058;27;20205;-39
2022/06/13 11:58:40;;;;;;;2.83;1.98;;;;;;;;;;5137320;27;20553;-39
2022/06/13 12:01:14;;;;;;;4.32;2.20;;;;;;;;;;5119721;27;20194;-39
2022/06/13 12:04:02;;;;;;;4.28;2.50;;;;;;;;;;5137847;27;20193;-39
2022/06/13 12:06:36;;;;;;;5.07;2.10;;;;;;;;;;5137084;27;20233;-39
2022/06/13 12:09:36;;;;;;;4.05;2.10;;;;;;;;;;5137811;27;20288;-39
2022/06/13 12:12:06;;;;;;;3.30;2.10;;;;;;;;;;5136608;27;20198;-39
2022/06/13 12:14:36;;;;;;;5.32;3.20;;;;;;;;;;5137295;27;20629;-39
2022/06/13 12:17:33;;;;;;;7.35;3.92;;;;;;;;;;5119612;27;20196;-39
2022/06/13 12:20:04;;;;;;;4.70;2.90;;;;;;;;;;5137413;27;20198;-40
2022/06/13 12:23:06;;;;;;;5.18;3.22;;;;;;;;;;5119421;27;20193;-39
2022/06/13 12:25:37;;;;;;;3.67;2.38;;;;;;;;;;5037583;28;20233;-39
2022/06/13 12:28:11;;;;;;;3.65;1.90;;;;;;;;;;5038027;28;20219;-39
2022/06/13 12:30:58;;;;;;;2.03;1.77;;;;;;;;;;5070722;28;20196;-39
2022/06/13 12:33:33;;;;;;;2.90;1.77;;;;;;;;;;5053210;28;20540;-40
2022/06/13 12:36:06;;;;;;;1.60;1.48;;;;;;;;;;5053866;28;20294;-39
2022/06/13 12:38:42;;;;;;;5.40;1.73;;;;;;;;;;5053880;28;20298;-40
2022/06/13 12:41:18;;;;;;;8.82;1.83;;;;;;;;;;5020661;28;20290;-39
2022/06/13 12:43:54;;;;;;;4.55;2.10;;;;;;;;;;5049974;28;20258;-39
2022/06/13 12:46:31;;;;;;;5.47;2.20;;;;;;;;;;5050214;28;20234;-45
2022/06/13 12:49:08;;;;;;;11.60;2.33;;;;;;;;;;5051345;28;20238;-39
2022/06/13 12:52:07;;;;;;;9.27;1.80;;;;;;;;;;5051052;28;20590;-42
2022/06/13 12:54:34;;;;;;;14.77;1.90;;;;;;;;;;5036296;28;20245;-42
2022/06/13 12:57:19;;;;;;;9.27;2.00;;;;;;;;;;5049385;28;20289;-41
2022/06/13 13:00:14;;;;;;;7.55;1.80;;;;;;;;;;5050628;28;20227;-44
2022/06/13 13:03:19;;;;;;;5.53;1.60;;;;;;;;;;5115489;27;20665;-39
2022/06/13 13:06:23;;;;;;;4.38;2.10;;;;;;;;;;5070773;28;20300;-40
2022/06/13 13:08:59;;;;;;;7.07;2.13;;;;;;;;;;5131771;27;20282;-44
2022/06/13 13:11:34;;;;;;;7.35;2.00;;;;;;;;;;5131613;27;20213;-39
2022/06/13 13:14:11;;;;;;;3.55;1.60;;;;;;;;;;5115335;27;20227;-39
2022/06/13 13:16:56;;;;;;;5.43;1.75;;;;;;;;;;5133154;27;20253;-44
2022/06/13 13:19:27;;;;;;;2.00;1.80;;;;;;;;;;5115740;27;20683;-40
2022/06/13 13:22:09;;;;;;;2.40;1.75;;;;;;;;;;5134139;27;20277;-39
2022/06/13 13:24:39;;;;;;;5.35;2.00;;;;;;;;;;5140115;27;20243;-40
2022/06/13 13:27:10;;;;;;;2.60;1.77;;;;;;;;;;5133162;27;20681;-39
2022/06/13 13:30:00;;;;;;;5.05;1.70;;;;;;;;;;5116080;28;20229;-41
2022/06/13 13:32:30;;;;;;;3.38;1.70;;;;;;;;;;5130218;28;20279;-40
2022/06/13 13:35:18;;;;;;;2.72;1.88;;;;;;;;;;5133316;27;20670;-41
2022/06/13 13:37:50;;;;;;;3.42;1.92;;;;;;;;;;5108214;28;20669;-39
2022/06/13 13:40:42;;;;;;;4.95;1.90;;;;;;;;;;5081149;28;20530;-42
2022/06/13 13:43:27;;;;;;;6.45;2.53;;;;;;;;;;5132947;28;20217;-41
2022/06/13 13:46:16;;;;;;;4.93;2.70;;;;;;;;;;5131431;28;20247;-41
2022/06/13 13:48:55;;;;;;;5.63;3.35;;;;;;;;;;5132697;27;20232;-43
2022/06/13 13:51:38;;;;;;;10.98;3.25;;;;;;;;;;5132210;28;20209;-40
2022/06/13 13:54:27;;;;;;;10.73;4.07;;;;;;;;;;5133954;28;20224;-39
2022/06/13 13:57:07;;;;;;;11.07;3.22;;;;;;;;;;5134056;28;20220;-40
2022/06/13 13:59:41;;;;;;;9.75;3.10;;;;;;;;;;5134776;28;20225;-39
2022/06/13 14:02:52;;;;;;;7.38;2.92;;;;;;;;;;5134564;28;20641;-41
2022/06/13 14:05:45;;;;;;;6.22;3.28;;;;;;;;;;5134852;28;20213;-40
2022/06/13 14:08:15;;;;;;;5.70;2.97;;;;;;;;;;5106740;27;20236;-39
2022/06/13 14:10:47;;;;;;;3.72;2.40;;;;;;;;;;5121322;27;20224;-39
2022/06/13 14:13:17;;;;;;;4.35;3.08;;;;;;;;;;5138273;27;20217;-40
2022/06/13 14:15:50;;;;;;;5.03;2.63;;;;;;;;;;5139086;27;20221;-39
2022/06/13 14:18:32;;;;;;;4.68;3.13;;;;;;;;;;5138768;27;20236;-38
2022/06/13 14:21:01;;;;;;;6.25;3.03;;;;;;;;;;5138364;27;20550;-40
2022/06/13 14:23:43;;;;;;;5.57;3.17;;;;;;;;;;5121014;27;20221;-39
2022/06/13 14:26:36;;;;;;;9.10;3.08;;;;;;;;;;5119964;27;20628;-38
2022/06/13 14:29:10;;;;;;;4.03;2.90;;;;;;;;;;5085932;27;20753;-37
2022/06/13 14:31:58;;;;;;;4.90;2.72;;;;;;;;;;5138623;27;20266;-37
2022/06/13 14:37:48;;;;;;;4.70;2.70;;;;;;;;;;5138257;27;20282;-37
2022/06/13 14:40:31;;;;;;;4.00;2.72;;;;;;;;;;5138052;27;20228;-37
2022/06/13 14:43:12;;;;;;;4.55;2.80;;;;;;;;;;5119708;27;20232;-39
2022/06/13 14:45:46;;;;;;;3.15;2.22;;;;;;;;;;5120244;27;20574;-37
2022/06/13 14:48:34;;;;;;;5.43;3.35;;;;;;;;;;5138071;27;20264;-37
2022/06/13 14:51:13;;;;;;;3.20;2.60;;;;;;;;;;5137913;27;20247;-38
2022/06/13 14:53:40;;;;;;;2.70;2.50;;;;;;;;;;5138407;27;20285;-37
2022/06/13 14:56:07;;;;;;;4.18;2.65;;;;;;;;;;5135743;27;20567;-40
2022/06/13 14:58:46;;;;;;;6.10;3.08;;;;;;;;;;5136211;27;20233;-40
2022/06/13 15:01:30;;;;;;;7.25;3.08;;;;;;;;;;5136183;27;20227;-41
2022/06/13 15:04:03;;;;;;;4.85;3.45;;;;;;;;;;5134113;27;20217;-41
2022/06/13 15:06:44;;;;;;;9.38;3.40;;;;;;;;;;5136597;27;20289;-41
2022/06/13 15:09:35;;;;;;;4.65;3.33;;;;;;;;;;5137520;27;20312;-37
2022/06/13 15:12:18;;;;;;;4.78;3.60;;;;;;;;;;5118885;27;20672;-38
2022/06/13 15:14:49;;;;;;;13.43;4.05;;;;;;;;;;5120021;27;20225;-37
2022/06/13 15:17:16;;;;;;;4.40;3.72;;;;;;;;;;5119430;27;20221;-40
2022/06/13 15:19:47;;;;;;;3.83;3.28;;;;;;;;;;5118831;27;20270;-38
2022/06/13 15:22:20;;;;;;;4.68;3.10;;;;;;;;;;5137152;27;20285;-38
2022/06/13 15:24:53;;;;;;;3.33;2.83;;;;;;;;;;5119921;27;20237;-38
2022/06/13 15:27:20;;;;;;;3.88;3.35;;;;;;;;;;5136443;27;20661;-39
2022/06/13 15:30:15;;;;;;;5.57;2.95;;;;;;;;;;5137260;27;20220;-38
2022/06/13 15:32:43;;;;;;;3.38;3.08;;;;;;;;;;5100164;27;20293;-38
2022/06/13 15:35:11;;;;;;;8.90;3.72;;;;;;;;;;5137133;27;20232;-37
2022/06/13 15:37:41;;;;;;;6.35;3.95;;;;;;;;;;5137119;27;20282;-38
2022/06/13 15:40:19;;;;;;;4.18;3.78;;;;;;;;;;5136551;27;20238;-38
2022/06/13 15:42:46;;;;;;;8.02;3.88;;;;;;;;;;5137139;27;20225;-38
2022/06/13 15:45:15;;;;;;;7.45;3.78;;;;;;;;;;5119194;27;20245;-38
2022/06/13 15:47:45;;;;;;;5.25;4.40;;;;;;;;;;5136888;27;20281;-38
2022/06/13 15:50:17;;;;;;;5.60;4.28;;;;;;;;;;5119339;27;20225;-38